createdAt,value
2018-05-17T00:00:50.105Z,5.93
2018-05-17T00:03:17.985Z,5.63
2018-05-17T00:05:45.861Z,5.23
2018-05-17T00:08:13.750Z,6.40
2018-05-17T00:10:41.642Z,4.90
2018-05-17T00:13:09.774Z,4.40
2018-05-17T00:15:43.958Z,5.60
2018-05-17T00:18:11.854Z,6.27
2018-05-17T00:20:39.745Z,6.20
2018-05-17T00:23:07.646Z,5.70
2018-05-17T00:25:35.555Z,5.73
2018-05-17T00:28:03.442Z,5.90
2018-05-17T00:30:31.332Z,5.93
2018-05-17T00:32:59.229Z,6.30
2018-05-17T00:35:27.126Z,5.57
2018-05-17T00:37:55.078Z,5.10
2018-05-17T00:40:22.975Z,4.77
2018-05-17T00:42:50.861Z,4.77
2018-05-17T00:45:18.750Z,5.60
2018-05-17T00:47:47.105Z,6.97
2018-05-17T00:50:15.006Z,5.23
2018-05-17T00:52:42.889Z,5.80
2018-05-17T00:55:10.776Z,5.10
2018-05-17T00:57:38.682Z,5.70
2018-05-17T01:00:06.593Z,6.77
2018-05-17T01:02:34.497Z,6.77
2018-05-17T01:05:02.386Z,6.37
2018-05-17T01:07:30.326Z,6.50
2018-05-17T01:09:58.273Z,6.90
2018-05-17T01:12:26.165Z,6.60
2018-05-17T01:14:54.293Z,7.20
2018-05-17T01:17:22.203Z,6.37
2018-05-17T01:19:50.111Z,6.20
2018-05-17T01:22:18.007Z,6.00
2018-05-17T01:24:45.922Z,6.43
2018-05-17T01:27:13.813Z,7.20
2018-05-17T01:29:41.711Z,6.10
2018-05-17T01:32:09.612Z,6.83
2018-05-17T01:34:37.530Z,5.30
2018-05-17T01:37:11.682Z,5.97
2018-05-17T01:39:39.602Z,7.20
2018-05-17T01:42:07.519Z,6.73
2018-05-17T01:44:35.434Z,6.00
2018-05-17T01:47:03.324Z,8.37
2018-05-17T01:49:31.213Z,7.30
2018-05-17T01:51:59.133Z,7.27
2018-05-17T01:54:27.022Z,6.20
2018-05-17T01:56:54.927Z,7.50
2018-05-17T01:59:22.849Z,6.20
2018-05-17T02:01:50.743Z,6.20
2018-05-17T02:04:18.636Z,7.07
2018-05-17T02:06:46.530Z,6.70
2018-05-17T02:09:14.419Z,6.90
2018-05-17T02:11:42.314Z,8.00
2018-05-17T02:14:10.221Z,8.50
2018-05-17T02:16:38.298Z,7.10
2018-05-17T02:19:06.201Z,8.03
2018-05-17T02:21:34.114Z,7.20
2018-05-17T02:24:02.042Z,7.13
2018-05-17T02:26:29.930Z,7.27
2018-05-17T02:28:57.813Z,8.50
2018-05-17T02:31:25.730Z,6.77
2018-05-17T02:33:53.626Z,8.13
2018-05-17T02:36:21.545Z,7.37
2018-05-17T02:38:49.424Z,6.07
2018-05-17T02:41:17.316Z,8.27
2018-05-17T02:43:45.222Z,6.40
2018-05-17T02:46:13.114Z,8.73
2018-05-17T02:48:41.074Z,6.77
2018-05-17T02:51:08.962Z,5.77
2018-05-17T02:53:36.841Z,9.83
2018-05-17T02:56:04.738Z,6.03
2018-05-17T02:58:32.702Z,7.53
2018-05-17T03:01:00.597Z,7.43
2018-05-17T03:03:28.485Z,7.80
2018-05-17T03:05:56.402Z,7.70
2018-05-17T03:08:24.294Z,7.40
2018-05-17T03:10:52.230Z,6.33
2018-05-17T03:13:20.126Z,7.00
2018-05-17T03:15:48.010Z,7.27
2018-05-17T03:18:16.137Z,6.37
2018-05-17T03:20:44.031Z,7.83
2018-05-17T03:23:11.931Z,8.60
2018-05-17T03:25:39.866Z,8.20
2018-05-17T03:28:07.757Z,7.40
2018-05-17T03:30:35.665Z,6.97
2018-05-17T03:33:03.566Z,7.03
2018-05-17T03:35:31.472Z,7.00
2018-05-17T03:37:59.366Z,7.87
2018-05-17T03:40:27.249Z,7.77
2018-05-17T03:42:55.157Z,6.60
2018-05-17T03:45:23.066Z,8.60
2018-05-17T03:47:50.946Z,8.23
2018-05-17T03:50:18.862Z,7.67
2018-05-17T03:52:46.750Z,7.03
2018-05-17T03:55:14.651Z,8.17
2018-05-17T03:57:42.546Z,9.93
2018-05-17T04:00:10.433Z,7.93
2018-05-17T04:02:44.494Z,8.43
2018-05-17T04:05:18.589Z,8.63
2018-05-17T04:07:46.473Z,7.40
2018-05-17T04:10:14.405Z,8.70
2018-05-17T04:12:42.294Z,6.20
2018-05-17T04:15:10.204Z,7.90
2018-05-17T04:17:38.098Z,6.93
2018-05-17T04:20:06.006Z,7.17
2018-05-17T04:22:33.906Z,7.60
2018-05-17T04:25:01.810Z,9.60
2018-05-17T04:27:29.708Z,8.13
2018-05-17T04:29:57.606Z,7.67
2018-05-17T04:32:25.503Z,8.07
2018-05-17T04:34:53.437Z,8.80
2018-05-17T04:37:21.325Z,8.33
2018-05-17T04:39:49.211Z,6.47
2018-05-17T04:42:17.103Z,7.57
2018-05-17T04:44:45.005Z,8.10
2018-05-17T04:47:12.905Z,8.70
2018-05-17T04:49:40.818Z,9.53
2018-05-17T04:52:08.718Z,8.40
2018-05-17T04:54:36.625Z,7.63
2018-05-17T04:57:04.528Z,8.13
2018-05-17T04:59:32.422Z,6.50
2018-05-17T05:02:00.306Z,8.27
2018-05-17T05:04:28.197Z,7.20
2018-05-17T05:06:56.093Z,9.90
2018-05-17T05:09:24.022Z,8.33
2018-05-17T05:11:51.918Z,8.17
2018-05-17T05:14:19.817Z,7.23
2018-05-17T05:16:47.701Z,8.90
2018-05-17T05:19:15.588Z,8.83
2018-05-17T05:21:43.758Z,8.03
2018-05-17T05:24:11.832Z,7.90
2018-05-17T05:26:39.907Z,8.67
2018-05-17T05:29:07.825Z,8.00
2018-05-17T05:31:35.750Z,8.10
2018-05-17T05:34:03.629Z,8.50
2018-05-17T05:36:31.533Z,9.50
2018-05-17T05:38:59.450Z,9.33
2018-05-17T05:41:27.369Z,11.20
2018-05-17T05:43:55.269Z,13.00
2018-05-17T05:46:23.165Z,10.73
2018-05-17T05:48:51.054Z,12.27
2018-05-17T05:51:18.953Z,11.23
2018-05-17T05:53:46.854Z,13.53
2018-05-17T05:56:14.751Z,14.37
2018-05-17T05:58:42.647Z,11.20
2018-05-17T06:01:10.554Z,12.30
2018-05-17T06:03:38.478Z,10.43
2018-05-17T06:06:06.401Z,12.00
2018-05-17T06:08:34.293Z,9.90
2018-05-17T06:11:02.189Z,10.13
2018-05-17T06:13:30.079Z,9.83
2018-05-17T06:15:57.978Z,9.47
2018-05-17T06:18:25.866Z,9.67
2018-05-17T06:20:53.780Z,9.80
2018-05-17T06:23:21.882Z,8.93
2018-05-17T06:25:49.770Z,8.70
2018-05-17T06:28:17.657Z,7.27
2018-05-17T06:30:45.554Z,6.80
2018-05-17T06:33:13.509Z,8.53
2018-05-17T06:35:41.398Z,8.33
2018-05-17T06:38:09.289Z,7.37
2018-05-17T06:40:37.174Z,8.83
2018-05-17T06:43:05.079Z,8.53
2018-05-17T06:45:32.993Z,9.10
2018-05-17T06:48:00.877Z,8.53
2018-05-17T06:50:28.773Z,9.37
2018-05-17T06:52:56.662Z,9.40
2018-05-17T06:55:24.585Z,10.63
2018-05-17T06:57:52.478Z,9.80
2018-05-17T07:00:20.402Z,11.80
2018-05-17T07:02:48.305Z,8.73
2018-05-17T07:05:16.237Z,8.87
2018-05-17T07:07:45.377Z,8.90
2018-05-17T07:10:13.269Z,9.40
2018-05-17T07:12:41.149Z,8.53
2018-05-17T07:15:09.047Z,8.80
2018-05-17T07:17:36.933Z,10.27
2018-05-17T07:20:04.829Z,8.03
2018-05-17T07:22:32.762Z,6.93
2018-05-17T07:25:00.917Z,7.50
2018-05-17T07:27:28.825Z,6.67
2018-05-17T07:29:56.874Z,6.63
2018-05-17T07:32:24.687Z,8.90
2018-05-17T07:34:52.594Z,6.77
2018-05-17T07:37:20.646Z,7.40
2018-05-17T07:39:48.542Z,7.57
2018-05-17T07:42:16.448Z,8.33
2018-05-17T07:44:44.386Z,9.00
2018-05-17T07:47:12.294Z,8.50
2018-05-17T07:49:40.162Z,8.10
2018-05-17T07:52:08.160Z,8.47
2018-05-17T07:54:35.970Z,7.30
2018-05-17T07:57:03.871Z,9.20
2018-05-17T07:59:31.760Z,8.43
2018-05-17T08:01:59.650Z,7.50
2018-05-17T08:04:27.541Z,8.20
2018-05-17T08:06:55.429Z,9.50
2018-05-17T08:09:23.364Z,9.23
2018-05-17T08:11:51.231Z,8.43
2018-05-17T08:14:19.136Z,7.67
2018-05-17T08:16:47.034Z,7.47
2018-05-17T08:19:14.936Z,7.73
2018-05-17T08:21:42.834Z,6.70
2018-05-17T08:24:10.726Z,7.47
2018-05-17T08:26:38.846Z,9.90
2018-05-17T08:29:06.738Z,7.80
2018-05-17T08:31:34.623Z,9.30
2018-05-17T08:34:02.517Z,11.90
2018-05-17T08:36:30.615Z,9.80
2018-05-17T08:38:58.353Z,8.33
2018-05-17T08:41:26.265Z,7.10
2018-05-17T08:43:54.162Z,6.70
2018-05-17T08:46:22.045Z,8.37
2018-05-17T08:48:49.946Z,7.80
2018-05-17T08:51:17.850Z,10.00
2018-05-17T08:53:45.749Z,12.47
2018-05-17T08:56:13.643Z,9.27
2018-05-17T08:58:41.542Z,9.20
2018-05-17T09:01:09.441Z,7.10
2018-05-17T09:03:37.329Z,7.60
2018-05-17T09:06:05.233Z,8.00
2018-05-17T09:08:33.166Z,8.93
2018-05-17T09:11:01.053Z,8.37
2018-05-17T09:13:28.969Z,8.00
2018-05-17T09:15:56.846Z,7.70
2018-05-17T09:18:24.758Z,9.43
2018-05-17T09:20:52.672Z,8.90
2018-05-17T09:23:20.594Z,8.30
2018-05-17T09:25:48.494Z,8.00
2018-05-17T09:28:16.661Z,8.80
2018-05-17T09:30:44.578Z,7.93
2018-05-17T09:33:12.471Z,9.30
2018-05-17T09:35:40.408Z,8.23
2018-05-17T09:38:08.255Z,8.87
2018-05-17T09:40:36.146Z,8.03
2018-05-17T09:43:04.077Z,8.33
2018-05-17T09:45:31.999Z,7.60
2018-05-17T09:47:59.922Z,9.33
2018-05-17T09:50:27.809Z,8.70
2018-05-17T09:52:55.701Z,9.43
2018-05-17T09:55:23.602Z,8.43
2018-05-17T09:57:51.510Z,9.10
2018-05-17T10:00:21.197Z,8.57
2018-05-17T10:02:49.101Z,8.23
2018-05-17T10:05:16.997Z,8.87
2018-05-17T10:07:44.968Z,9.50
2018-05-17T10:10:12.789Z,9.13
2018-05-17T10:12:40.686Z,6.90
2018-05-17T10:15:08.584Z,10.10
2018-05-17T10:17:36.475Z,8.20
2018-05-17T10:20:04.366Z,9.60
2018-05-17T10:22:32.269Z,7.63
2018-05-17T10:25:00.162Z,8.53
2018-05-17T10:27:28.064Z,6.93
2018-05-17T10:29:56.229Z,8.23
2018-05-17T10:32:24.162Z,8.70
2018-05-17T10:34:52.061Z,8.60
2018-05-17T10:37:19.967Z,6.63
2018-05-17T10:39:47.893Z,7.73
2018-05-17T10:42:16.467Z,7.40
2018-05-17T10:44:44.409Z,8.70
2018-05-17T10:47:12.325Z,8.60
2018-05-17T10:49:40.226Z,7.80
2018-05-17T10:52:08.125Z,9.27
2018-05-17T10:54:36.059Z,7.10
2018-05-17T10:57:03.943Z,6.47
2018-05-17T10:59:31.869Z,7.10
2018-05-17T11:01:59.769Z,7.43
2018-05-17T11:04:27.710Z,10.60
2018-05-17T11:06:55.593Z,9.70
2018-05-17T11:09:23.481Z,8.07
2018-05-17T11:11:51.378Z,8.13
2018-05-17T11:14:19.301Z,9.47
2018-05-17T11:16:47.199Z,8.33
2018-05-17T11:19:15.377Z,7.23
2018-05-17T11:21:43.282Z,8.90
2018-05-17T11:24:11.182Z,8.40
2018-05-17T11:26:39.089Z,10.07
2018-05-17T11:29:06.988Z,7.80
2018-05-17T11:31:35.065Z,9.70
2018-05-17T11:34:02.970Z,8.70
2018-05-17T11:36:30.869Z,8.70
2018-05-17T11:38:58.764Z,9.17
2018-05-17T11:41:26.692Z,9.33
2018-05-17T11:43:54.584Z,9.47
2018-05-17T11:46:22.485Z,8.83
2018-05-17T11:48:50.412Z,8.50
2018-05-17T11:51:18.310Z,11.00
2018-05-17T11:53:46.213Z,9.10
2018-05-17T11:56:14.146Z,9.70
2018-05-17T11:58:42.030Z,7.83
2018-05-17T12:01:09.925Z,9.00
2018-05-17T12:03:37.813Z,8.77
2018-05-17T12:06:05.698Z,9.40
2018-05-17T12:08:33.610Z,8.30
2018-05-17T12:11:01.523Z,9.43
2018-05-17T12:13:29.421Z,9.40
2018-05-17T12:15:57.313Z,8.57
2018-05-17T12:18:25.233Z,9.90
2018-05-17T12:20:53.154Z,8.53
2018-05-17T12:23:21.096Z,11.37
2018-05-17T12:25:49.006Z,11.10
2018-05-17T12:28:16.894Z,10.20
2018-05-17T12:30:44.815Z,9.07
2018-05-17T12:33:12.890Z,10.53
2018-05-17T12:35:40.786Z,10.30
2018-05-17T12:38:08.673Z,10.10
2018-05-17T12:40:36.570Z,9.77
2018-05-17T12:43:04.462Z,10.80
2018-05-17T12:45:32.363Z,8.63
2018-05-17T12:48:00.246Z,10.23
2018-05-17T12:50:28.133Z,11.43
2018-05-17T12:52:56.218Z,10.00
2018-05-17T12:55:24.111Z,8.23
2018-05-17T12:57:52.017Z,9.27
2018-05-17T13:00:19.929Z,9.80
2018-05-17T13:02:47.827Z,10.33
2018-05-17T13:05:21.989Z,9.30
2018-05-17T13:07:49.934Z,10.27
2018-05-17T13:10:17.853Z,9.20
2018-05-17T13:12:45.750Z,12.50
2018-05-17T13:15:13.641Z,9.80
2018-05-17T13:17:41.522Z,10.70
2018-05-17T13:20:09.442Z,10.63
2018-05-17T13:22:37.366Z,12.87
2018-05-17T13:25:05.279Z,10.77
2018-05-17T13:27:33.167Z,12.50
2018-05-17T13:30:01.069Z,9.87
2018-05-17T13:32:28.974Z,12.23
2018-05-17T13:34:57.053Z,12.93
2018-05-17T13:37:24.995Z,10.83
2018-05-17T13:39:52.914Z,11.40
2018-05-17T13:42:20.807Z,11.30
2018-05-17T13:44:48.706Z,11.20
2018-05-17T13:47:16.614Z,10.53
2018-05-17T13:49:44.507Z,13.50
2018-05-17T13:52:12.425Z,12.37
2018-05-17T13:54:40.349Z,10.50
2018-05-17T13:57:08.242Z,10.23
2018-05-17T13:59:36.154Z,11.50
2018-05-17T14:02:04.043Z,9.27
2018-05-17T14:04:31.930Z,9.83
2018-05-17T14:06:59.910Z,9.10
2018-05-17T14:09:27.787Z,10.27
2018-05-17T14:11:55.694Z,9.20
2018-05-17T14:14:23.614Z,8.60
2018-05-17T14:16:51.507Z,8.97
2018-05-17T14:19:19.401Z,9.67
2018-05-17T14:21:47.318Z,8.87
2018-05-17T14:24:15.225Z,8.83
2018-05-17T14:26:43.122Z,10.00
2018-05-17T14:29:11.029Z,9.00
2018-05-17T14:31:38.943Z,9.53
2018-05-17T14:34:06.837Z,10.57
2018-05-17T14:36:34.982Z,10.70
2018-05-17T14:39:02.893Z,10.50
2018-05-17T14:41:30.814Z,10.63
2018-05-17T14:43:58.757Z,9.97
2018-05-17T14:46:26.670Z,8.27
2018-05-17T14:48:54.609Z,9.00
2018-05-17T14:51:22.505Z,9.00
2018-05-17T14:53:50.438Z,9.73
2018-05-17T14:56:18.329Z,8.70
2018-05-17T14:58:46.256Z,8.60
2018-05-17T15:01:14.229Z,9.97
2018-05-17T15:03:42.057Z,9.07
2018-05-17T15:06:09.958Z,10.93
2018-05-17T15:08:37.913Z,8.07
2018-05-17T15:11:05.766Z,8.43
2018-05-17T15:13:33.686Z,9.50
2018-05-17T15:16:01.577Z,8.90
2018-05-17T15:18:29.486Z,9.30
2018-05-17T15:20:57.369Z,7.90
2018-05-17T15:23:25.306Z,9.30
2018-05-17T15:25:53.201Z,7.70
2018-05-17T15:28:21.290Z,12.07
2018-05-17T15:30:49.181Z,9.33
2018-05-17T15:33:17.083Z,9.23
2018-05-17T15:35:44.982Z,9.93
2018-05-17T15:38:15.157Z,9.32
2018-05-17T15:40:43.062Z,9.60
2018-05-17T15:43:10.956Z,8.60
2018-05-17T15:45:38.845Z,9.43
2018-05-17T15:48:06.746Z,9.23
2018-05-17T15:50:34.659Z,9.60
2018-05-17T15:53:02.546Z,10.57
2018-05-17T15:55:30.525Z,9.33
2018-05-17T15:57:58.334Z,12.00
2018-05-17T16:00:26.268Z,10.73
2018-05-17T16:02:54.165Z,9.57
2018-05-17T16:05:22.066Z,10.53
2018-05-17T16:07:49.978Z,9.60
2018-05-17T16:10:17.873Z,9.90
2018-05-17T16:12:45.766Z,10.50
2018-05-17T16:15:13.804Z,9.97
2018-05-17T16:17:41.561Z,11.63
2018-05-17T16:20:09.443Z,9.10
2018-05-17T16:22:37.358Z,9.50
2018-05-17T16:25:05.246Z,11.27
2018-05-17T16:27:33.162Z,9.83
2018-05-17T16:30:01.078Z,10.27
2018-05-17T16:32:28.973Z,9.03
2018-05-17T16:34:56.855Z,9.40
2018-05-17T16:37:24.762Z,8.60
2018-05-17T16:39:52.907Z,9.70
2018-05-17T16:42:20.821Z,10.00
2018-05-17T16:44:48.751Z,10.70
2018-05-17T16:47:16.670Z,8.60
2018-05-17T16:49:44.602Z,9.17
2018-05-17T16:52:12.517Z,9.10
2018-05-17T16:54:40.403Z,7.90
2018-05-17T16:57:08.349Z,10.00
2018-05-17T16:59:36.237Z,8.17
2018-05-17T17:02:04.125Z,7.67
2018-05-17T17:04:32.011Z,8.83
2018-05-17T17:06:59.902Z,9.50
2018-05-17T17:09:27.813Z,8.30
2018-05-17T17:11:55.710Z,9.40
2018-05-17T17:14:23.634Z,9.50
2018-05-17T17:16:51.531Z,8.40
2018-05-17T17:19:19.481Z,9.60
2018-05-17T17:21:47.378Z,9.20
2018-05-17T17:24:15.270Z,11.47
2018-05-17T17:26:43.181Z,8.60
2018-05-17T17:29:11.078Z,9.13
2018-05-17T17:31:38.966Z,10.07
2018-05-17T17:34:06.874Z,11.60
2018-05-17T17:36:34.825Z,11.20
2018-05-17T17:39:02.686Z,10.10
2018-05-17T17:41:30.791Z,9.33
2018-05-17T17:43:58.690Z,11.30
2018-05-17T17:46:26.591Z,12.17
2018-05-17T17:48:54.509Z,11.20
2018-05-17T17:51:22.413Z,12.20
2018-05-17T17:53:50.338Z,11.97
2018-05-17T17:56:18.244Z,10.70
2018-05-17T17:58:46.141Z,12.30
2018-05-17T18:01:14.043Z,12.80
2018-05-17T18:03:41.921Z,13.20
2018-05-17T18:06:09.896Z,13.37
2018-05-17T18:08:37.790Z,12.63
2018-05-17T18:11:05.680Z,13.90
2018-05-17T18:13:33.574Z,12.40
2018-05-17T18:16:01.474Z,11.80
2018-05-17T18:18:29.365Z,12.97
2018-05-17T18:20:57.253Z,11.50
2018-05-17T18:23:25.146Z,12.40
2018-05-17T18:25:53.081Z,15.57
2018-05-17T18:28:20.960Z,13.57
2018-05-17T18:30:48.851Z,14.57
2018-05-17T18:33:16.741Z,12.20
2018-05-17T18:35:44.629Z,13.40
2018-05-17T18:38:12.565Z,13.73
2018-05-17T18:40:40.461Z,13.40
2018-05-17T18:43:08.572Z,15.73
2018-05-17T18:45:36.433Z,14.80
2018-05-17T18:48:04.326Z,13.30
2018-05-17T18:50:32.214Z,21.50
2018-05-17T18:53:00.119Z,17.00
2018-05-17T18:55:28.006Z,17.80
2018-05-17T18:57:55.925Z,13.20
2018-05-17T19:00:23.894Z,13.53
2018-05-17T19:02:51.717Z,14.40
2018-05-17T19:05:19.614Z,13.77
2018-05-17T19:07:47.523Z,13.20
2018-05-17T19:10:15.426Z,11.67
2018-05-17T19:12:43.323Z,12.70
2018-05-17T19:15:11.221Z,11.63
2018-05-17T19:17:39.111Z,14.33
2018-05-17T19:20:07.009Z,14.83
2018-05-17T19:22:34.902Z,13.07
2018-05-17T19:25:02.787Z,12.63
2018-05-17T19:27:30.680Z,10.83
2018-05-17T19:29:58.565Z,14.00
2018-05-17T19:32:26.462Z,11.50
2018-05-17T19:34:54.367Z,16.17
2018-05-17T19:37:22.267Z,15.83
2018-05-17T19:39:50.171Z,12.80
2018-05-17T19:42:18.076Z,11.20
2018-05-17T19:44:46.226Z,11.90
2018-05-17T19:47:14.122Z,12.10
2018-05-17T19:49:42.014Z,14.47
2018-05-17T19:52:09.897Z,12.87
2018-05-17T19:54:39.910Z,12.00
2018-05-17T19:57:07.820Z,20.10
2018-05-17T19:59:35.969Z,16.40
2018-05-17T20:02:03.749Z,16.77
2018-05-17T20:04:31.646Z,11.30
2018-05-17T20:06:59.534Z,11.00
2018-05-17T20:09:27.439Z,21.50
2018-05-17T20:11:55.358Z,18.77
2018-05-17T20:14:23.266Z,12.53
2018-05-17T20:16:51.150Z,12.10
2018-05-17T20:19:19.057Z,9.37
2018-05-17T20:21:47.829Z,10.73
2018-05-17T20:24:15.714Z,10.13
2018-05-17T20:26:43.618Z,9.63
2018-05-17T20:29:11.509Z,10.07
2018-05-17T20:31:39.405Z,9.77
2018-05-17T20:34:07.303Z,9.20
2018-05-17T20:36:35.277Z,11.00
2018-05-17T20:39:03.109Z,11.40
2018-05-17T20:41:30.994Z,10.23
2018-05-17T20:43:58.877Z,10.37
2018-05-17T20:46:27.021Z,9.03
2018-05-17T20:48:54.918Z,8.47
2018-05-17T20:51:22.817Z,10.10
2018-05-17T20:53:50.718Z,9.63
2018-05-17T20:56:18.606Z,10.10
2018-05-17T20:58:46.502Z,8.50
2018-05-17T21:01:14.404Z,10.00
2018-05-17T21:03:42.312Z,8.87
2018-05-17T21:06:10.201Z,10.60
2018-05-17T21:08:38.086Z,10.50
2018-05-17T21:11:05.966Z,10.83
2018-05-17T21:13:33.853Z,9.43
2018-05-17T21:16:01.745Z,10.07
2018-05-17T21:18:29.638Z,11.30
2018-05-17T21:20:57.631Z,9.80
2018-05-17T21:23:25.445Z,11.07
2018-05-17T21:25:53.346Z,9.30
2018-05-17T21:28:21.225Z,9.70
2018-05-17T21:30:49.113Z,9.20
2018-05-17T21:33:17.000Z,8.30
2018-05-17T21:35:44.893Z,8.30
2018-05-17T21:38:12.782Z,11.37
2018-05-17T21:40:40.690Z,9.43
2018-05-17T21:43:08.581Z,9.53
2018-05-17T21:45:36.478Z,10.20
2018-05-17T21:48:04.630Z,9.10
2018-05-17T21:50:32.560Z,9.20
2018-05-17T21:53:00.418Z,9.60
2018-05-17T21:55:28.307Z,9.30
2018-05-17T21:57:56.201Z,9.90
2018-05-17T22:00:24.097Z,10.40
2018-05-17T22:02:51.983Z,10.67
2018-05-17T22:05:19.874Z,10.30
2018-05-17T22:07:47.770Z,12.30
2018-05-17T22:10:15.674Z,10.20
2018-05-17T22:12:43.561Z,12.97
2018-05-17T22:15:11.450Z,14.23
2018-05-17T22:17:39.335Z,13.80
2018-05-17T22:20:07.221Z,12.17
2018-05-17T22:22:35.114Z,11.70
2018-05-17T22:25:03.006Z,12.97
2018-05-17T22:27:30.887Z,13.70
2018-05-17T22:29:58.808Z,12.20
2018-05-17T22:32:26.725Z,11.63
2018-05-17T22:34:54.620Z,14.00
2018-05-17T22:37:22.501Z,13.70
2018-05-17T22:39:50.397Z,14.00
2018-05-17T22:42:18.293Z,14.33
2018-05-17T22:44:46.193Z,12.23
2018-05-17T22:47:14.086Z,12.60
2018-05-17T22:49:42.145Z,12.60
2018-05-17T22:52:10.126Z,11.83
2018-05-17T22:54:37.937Z,12.40
2018-05-17T22:57:10.821Z,10.07
2018-05-17T22:59:38.749Z,10.37
2018-05-17T23:02:06.644Z,13.00
2018-05-17T23:04:34.549Z,11.67
2018-05-17T23:07:02.454Z,12.37
2018-05-17T23:09:30.345Z,12.57
2018-05-17T23:11:58.236Z,11.37
2018-05-17T23:14:26.140Z,11.23
2018-05-17T23:16:54.027Z,12.97
2018-05-17T23:19:21.929Z,10.70
2018-05-17T23:21:49.820Z,10.73
2018-05-17T23:24:17.701Z,9.77
2018-05-17T23:26:45.622Z,10.90
2018-05-17T23:29:13.506Z,10.07
2018-05-17T23:31:41.385Z,9.30
2018-05-17T23:34:09.280Z,10.70
2018-05-17T23:36:37.174Z,10.57
2018-05-17T23:39:05.065Z,10.47
2018-05-17T23:41:34.961Z,10.80
2018-05-17T23:44:02.850Z,11.10
2018-05-17T23:46:30.742Z,11.37
2018-05-17T23:48:58.642Z,12.57
2018-05-17T23:51:26.729Z,12.30
2018-05-17T23:53:54.635Z,11.40
2018-05-17T23:56:22.529Z,11.93
2018-05-17T23:58:50.418Z,10.60
